sensor_id;sensor_type;location;lat;lon;timestamp;P1;durP1;ratioP1;P2;durP2;ratioP2
7829;SDS011;3960;51.86894000;5.39848000;2022-12-07T00:02:13;12.57;;;7.90;;
7829;SDS011;3960;51.86894000;5.39848000;2022-12-07T00:04:39;15.25;;;9.63;;
7829;SDS011;3960;51.86894000;5.39848000;2022-12-07T00:07:04;13.25;;;7.88;;
7829;SDS011;3960;51.86894000;5.39848000;2022-12-07T00:09:29;17.48;;;8.63;;
7829;SDS011;3960;51.86894000;5.39848000;2022-12-07T00:11:54;10.65;;;7.70;;
7829;SDS011;3960;51.86894000;5.39848000;2022-12-07T00:14:19;20.23;;;8.52;;
7829;SDS011;3960;51.86894000;5.39848000;2022-12-07T00:16:45;19.52;;;8.35;;
7829;SDS011;3960;51.86894000;5.39848000;2022-12-07T00:19:11;18.15;;;9.05;;
7829;SDS011;3960;51.86894000;5.39848000;2022-12-07T00:21:37;15.48;;;8.00;;
7829;SDS011;3960;51.86894000;5.39848000;2022-12-07T00:24:02;11.70;;;7.88;;
7829;SDS011;3960;51.86894000;5.39848000;2022-12-07T00:26:32;15.43;;;8.20;;
7829;SDS011;3960;51.86894000;5.39848000;2022-12-07T00:29:02;16.65;;;8.35;;
7829;SDS011;3960;51.86894000;5.39848000;2022-12-07T00:31:29;14.20;;;8.63;;
7829;SDS011;3960;51.86894000;5.39848000;2022-12-07T00:33:55;17.27;;;9.75;;
7829;SDS011;3960;51.86894000;5.39848000;2022-12-07T00:36:21;14.73;;;8.90;;
7829;SDS011;3960;51.86894000;5.39848000;2022-12-07T00:38:46;16.35;;;9.00;;
7829;SDS011;3960;51.86894000;5.39848000;2022-12-07T00:41:15;15.70;;;9.05;;
7829;SDS011;3960;51.86894000;5.39848000;2022-12-07T00:43:41;15.07;;;9.00;;
7829;SDS011;3960;51.86894000;5.39848000;2022-12-07T00:46:07;20.95;;;9.82;;
7829;SDS011;3960;51.86894000;5.39848000;2022-12-07T00:48:33;17.98;;;10.27;;
7829;SDS011;3960;51.86894000;5.39848000;2022-12-07T00:50:58;14.98;;;10.00;;
7829;SDS011;3960;51.86894000;5.39848000;2022-12-07T00:53:23;16.02;;;9.52;;
7829;SDS011;3960;51.86894000;5.39848000;2022-12-07T00:55:49;18.17;;;9.48;;
7829;SDS011;3960;51.86894000;5.39848000;2022-12-07T00:58:14;13.55;;;9.30;;
7829;SDS011;3960;51.86894000;5.39848000;2022-12-07T01:00:40;15.43;;;9.18;;
7829;SDS011;3960;51.86894000;5.39848000;2022-12-07T01:03:06;20.48;;;10.02;;
7829;SDS011;3960;51.86894000;5.39848000;2022-12-07T01:05:32;16.02;;;10.10;;
7829;SDS011;3960;51.86894000;5.39848000;2022-12-07T01:07:57;19.77;;;10.20;;
7829;SDS011;3960;51.86894000;5.39848000;2022-12-07T01:10:22;17.57;;;9.87;;
7829;SDS011;3960;51.86894000;5.39848000;2022-12-07T01:12:47;21.70;;;9.93;;
7829;SDS011;3960;51.86894000;5.39848000;2022-12-07T01:15:12;13.70;;;9.10;;
7829;SDS011;3960;51.86894000;5.39848000;2022-12-07T01:17:38;18.52;;;8.95;;
7829;SDS011;3960;51.86894000;5.39848000;2022-12-07T01:20:03;19.10;;;9.40;;
7829;SDS011;3960;51.86894000;5.39848000;2022-12-07T01:22:28;16.27;;;8.60;;
7829;SDS011;3960;51.86894000;5.39848000;2022-12-07T01:24:54;18.77;;;7.90;;
7829;SDS011;3960;51.86894000;5.39848000;2022-12-07T01:27:19;13.05;;;8.10;;
7829;SDS011;3960;51.86894000;5.39848000;2022-12-07T01:29:44;15.93;;;7.30;;
7829;SDS011;3960;51.86894000;5.39848000;2022-12-07T01:32:10;15.82;;;7.80;;
7829;SDS011;3960;51.86894000;5.39848000;2022-12-07T01:34:35;13.75;;;7.35;;
7829;SDS011;3960;51.86894000;5.39848000;2022-12-07T01:37:00;10.70;;;6.50;;
7829;SDS011;3960;51.86894000;5.39848000;2022-12-07T01:39:25;15.30;;;6.80;;
7829;SDS011;3960;51.86894000;5.39848000;2022-12-07T01:41:51;14.35;;;6.22;;
7829;SDS011;3960;51.86894000;5.39848000;2022-12-07T01:44:24;9.43;;;5.45;;
7829;SDS011;3960;51.86894000;5.39848000;2022-12-07T01:49:21;12.43;;;6.63;;
7829;SDS011;3960;51.86894000;5.39848000;2022-12-07T01:51:47;14.18;;;6.40;;
7829;SDS011;3960;51.86894000;5.39848000;2022-12-07T01:54:14;13.25;;;6.15;;
7829;SDS011;3960;51.86894000;5.39848000;2022-12-07T01:56:40;10.40;;;5.47;;
7829;SDS011;3960;51.86894000;5.39848000;2022-12-07T01:59:07;14.82;;;5.97;;
7829;SDS011;3960;51.86894000;5.39848000;2022-12-07T02:01:32;14.90;;;6.00;;
7829;SDS011;3960;51.86894000;5.39848000;2022-12-07T02:03:58;15.20;;;5.70;;
7829;SDS011;3960;51.86894000;5.39848000;2022-12-07T02:06:24;14.70;;;5.45;;
7829;SDS011;3960;51.86894000;5.39848000;2022-12-07T02:08:49;13.95;;;5.85;;
7829;SDS011;3960;51.86894000;5.39848000;2022-12-07T02:11:15;13.63;;;5.57;;
7829;SDS011;3960;51.86894000;5.39848000;2022-12-07T02:13:41;16.15;;;6.30;;
7829;SDS011;3960;51.86894000;5.39848000;2022-12-07T02:21:39;13.93;;;6.72;;
7829;SDS011;3960;51.86894000;5.39848000;2022-12-07T02:26:44;11.43;;;5.93;;
7829;SDS011;3960;51.86894000;5.39848000;2022-12-07T02:29:20;12.90;;;7.22;;
7829;SDS011;3960;51.86894000;5.39848000;2022-12-07T02:31:55;13.55;;;6.20;;
7829;SDS011;3960;51.86894000;5.39848000;2022-12-07T02:37:29;13.25;;;6.50;;
7829;SDS011;3960;51.86894000;5.39848000;2022-12-07T02:40:05;15.55;;;6.03;;
7829;SDS011;3960;51.86894000;5.39848000;2022-12-07T02:42:43;15.85;;;6.13;;
7829;SDS011;3960;51.86894000;5.39848000;2022-12-07T02:45:11;17.95;;;6.40;;
7829;SDS011;3960;51.86894000;5.39848000;2022-12-07T02:47:38;18.73;;;5.85;;
7829;SDS011;3960;51.86894000;5.39848000;2022-12-07T02:50:05;15.13;;;6.45;;
7829;SDS011;3960;51.86894000;5.39848000;2022-12-07T02:52:30;17.88;;;5.75;;
7829;SDS011;3960;51.86894000;5.39848000;2022-12-07T02:54:55;17.10;;;6.13;;
7829;SDS011;3960;51.86894000;5.39848000;2022-12-07T03:00:08;17.35;;;5.80;;
7829;SDS011;3960;51.86894000;5.39848000;2022-12-07T03:02:36;16.73;;;5.85;;
7829;SDS011;3960;51.86894000;5.39848000;2022-12-07T03:10:06;17.65;;;5.38;;
7829;SDS011;3960;51.86894000;5.39848000;2022-12-07T03:12:39;10.43;;;5.20;;
7829;SDS011;3960;51.86894000;5.39848000;2022-12-07T03:15:08;11.93;;;5.25;;
7829;SDS011;3960;51.86894000;5.39848000;2022-12-07T03:17:35;13.00;;;4.60;;
7829;SDS011;3960;51.86894000;5.39848000;2022-12-07T03:20:04;11.55;;;5.20;;
7829;SDS011;3960;51.86894000;5.39848000;2022-12-07T03:22:31;13.65;;;4.93;;
7829;SDS011;3960;51.86894000;5.39848000;2022-12-07T03:24:58;10.45;;;4.35;;
7829;SDS011;3960;51.86894000;5.39848000;2022-12-07T03:27:25;12.95;;;4.50;;
7829;SDS011;3960;51.86894000;5.39848000;2022-12-07T03:30:02;12.50;;;4.35;;
7829;SDS011;3960;51.86894000;5.39848000;2022-12-07T03:32:39;11.93;;;4.07;;
7829;SDS011;3960;51.86894000;5.39848000;2022-12-07T03:35:07;11.52;;;3.83;;
7829;SDS011;3960;51.86894000;5.39848000;2022-12-07T03:37:42;9.45;;;3.15;;
7829;SDS011;3960;51.86894000;5.39848000;2022-12-07T03:42:43;8.68;;;3.33;;
7829;SDS011;3960;51.86894000;5.39848000;2022-12-07T03:45:09;9.63;;;3.45;;
7829;SDS011;3960;51.86894000;5.39848000;2022-12-07T03:47:35;9.48;;;3.40;;
7829;SDS011;3960;51.86894000;5.39848000;2022-12-07T03:50:07;9.82;;;3.25;;
7829;SDS011;3960;51.86894000;5.39848000;2022-12-07T03:52:41;9.52;;;3.30;;
7829;SDS011;3960;51.86894000;5.39848000;2022-12-07T03:55:15;12.55;;;3.47;;
7829;SDS011;3960;51.86894000;5.39848000;2022-12-07T03:57:41;9.35;;;3.35;;
7829;SDS011;3960;51.86894000;5.39848000;2022-12-07T04:00:07;8.90;;;3.40;;
7829;SDS011;3960;51.86894000;5.39848000;2022-12-07T04:02:34;14.32;;;3.58;;
7829;SDS011;3960;51.86894000;5.39848000;2022-12-07T04:05:00;9.25;;;3.20;;
7829;SDS011;3960;51.86894000;5.39848000;2022-12-07T04:07:25;9.80;;;2.95;;
7829;SDS011;3960;51.86894000;5.39848000;2022-12-07T04:09:51;7.83;;;2.77;;
7829;SDS011;3960;51.86894000;5.39848000;2022-12-07T04:12:16;11.07;;;3.27;;
7829;SDS011;3960;51.86894000;5.39848000;2022-12-07T04:14:41;10.30;;;2.83;;
7829;SDS011;3960;51.86894000;5.39848000;2022-12-07T04:17:06;5.87;;;2.60;;
7829;SDS011;3960;51.86894000;5.39848000;2022-12-07T04:19:32;8.27;;;2.55;;
7829;SDS011;3960;51.86894000;5.39848000;2022-12-07T04:21:57;8.15;;;2.40;;
7829;SDS011;3960;51.86894000;5.39848000;2022-12-07T04:24:23;9.00;;;2.20;;
7829;SDS011;3960;51.86894000;5.39848000;2022-12-07T04:26:49;5.70;;;1.95;;
7829;SDS011;3960;51.86894000;5.39848000;2022-12-07T04:29:14;9.20;;;2.35;;
7829;SDS011;3960;51.86894000;5.39848000;2022-12-07T04:31:39;9.18;;;2.55;;
7829;SDS011;3960;51.86894000;5.39848000;2022-12-07T04:34:05;9.68;;;2.13;;
7829;SDS011;3960;51.86894000;5.39848000;2022-12-07T04:36:30;6.38;;;2.03;;
7829;SDS011;3960;51.86894000;5.39848000;2022-12-07T04:38:55;7.82;;;1.92;;
7829;SDS011;3960;51.86894000;5.39848000;2022-12-07T04:41:21;8.55;;;1.98;;
7829;SDS011;3960;51.86894000;5.39848000;2022-12-07T04:43:52;6.30;;;1.83;;
7829;SDS011;3960;51.86894000;5.39848000;2022-12-07T04:46:17;8.70;;;2.33;;
7829;SDS011;3960;51.86894000;5.39848000;2022-12-07T04:48:42;7.30;;;2.47;;
7829;SDS011;3960;51.86894000;5.39848000;2022-12-07T04:51:07;8.80;;;2.40;;
7829;SDS011;3960;51.86894000;5.39848000;2022-12-07T04:53:33;9.03;;;2.67;;
7829;SDS011;3960;51.86894000;5.39848000;2022-12-07T04:55:58;8.90;;;2.60;;
7829;SDS011;3960;51.86894000;5.39848000;2022-12-07T04:58:23;9.27;;;2.30;;
7829;SDS011;3960;51.86894000;5.39848000;2022-12-07T05:00:48;8.97;;;2.30;;
7829;SDS011;3960;51.86894000;5.39848000;2022-12-07T05:03:13;11.17;;;2.60;;
7829;SDS011;3960;51.86894000;5.39848000;2022-12-07T05:05:40;12.57;;;2.40;;
7829;SDS011;3960;51.86894000;5.39848000;2022-12-07T05:08:05;16.27;;;3.03;;
7829;SDS011;3960;51.86894000;5.39848000;2022-12-07T05:10:30;9.17;;;2.40;;
7829;SDS011;3960;51.86894000;5.39848000;2022-12-07T05:12:55;13.00;;;2.70;;
7829;SDS011;3960;51.86894000;5.39848000;2022-12-07T05:15:20;11.67;;;2.90;;
7829;SDS011;3960;51.86894000;5.39848000;2022-12-07T05:17:46;14.32;;;3.05;;
7829;SDS011;3960;51.86894000;5.39848000;2022-12-07T05:20:11;7.90;;;2.70;;
7829;SDS011;3960;51.86894000;5.39848000;2022-12-07T05:22:36;11.40;;;2.45;;
7829;SDS011;3960;51.86894000;5.39848000;2022-12-07T05:25:01;13.63;;;3.10;;
7829;SDS011;3960;51.86894000;5.39848000;2022-12-07T05:27:26;10.27;;;3.60;;
7829;SDS011;3960;51.86894000;5.39848000;2022-12-07T05:29:52;10.83;;;2.60;;
7829;SDS011;3960;51.86894000;5.39848000;2022-12-07T05:32:17;6.73;;;2.30;;
7829;SDS011;3960;51.86894000;5.39848000;2022-12-07T05:34:42;8.00;;;2.47;;
7829;SDS011;3960;51.86894000;5.39848000;2022-12-07T05:37:07;8.37;;;2.20;;
7829;SDS011;3960;51.86894000;5.39848000;2022-12-07T05:39:32;10.73;;;2.38;;
7829;SDS011;3960;51.86894000;5.39848000;2022-12-07T05:41:58;10.18;;;2.30;;
7829;SDS011;3960;51.86894000;5.39848000;2022-12-07T05:44:52;11.95;;;2.92;;
7829;SDS011;3960;51.86894000;5.39848000;2022-12-07T05:47:17;8.00;;;2.20;;
7829;SDS011;3960;51.86894000;5.39848000;2022-12-07T05:49:42;9.67;;;2.63;;
7829;SDS011;3960;51.86894000;5.39848000;2022-12-07T05:52:07;5.70;;;2.20;;
7829;SDS011;3960;51.86894000;5.39848000;2022-12-07T05:54:33;7.72;;;2.50;;
7829;SDS011;3960;51.86894000;5.39848000;2022-12-07T05:56:58;8.90;;;2.60;;
7829;SDS011;3960;51.86894000;5.39848000;2022-12-07T05:59:24;12.52;;;2.80;;
7829;SDS011;3960;51.86894000;5.39848000;2022-12-07T06:01:59;9.07;;;2.50;;
7829;SDS011;3960;51.86894000;5.39848000;2022-12-07T06:04:26;11.90;;;2.80;;
7829;SDS011;3960;51.86894000;5.39848000;2022-12-07T06:06:51;7.95;;;2.85;;
7829;SDS011;3960;51.86894000;5.39848000;2022-12-07T06:09:17;8.45;;;2.67;;
7829;SDS011;3960;51.86894000;5.39848000;2022-12-07T06:11:43;17.27;;;3.80;;
7829;SDS011;3960;51.86894000;5.39848000;2022-12-07T06:14:27;12.43;;;2.95;;
7829;SDS011;3960;51.86894000;5.39848000;2022-12-07T06:16:52;11.53;;;2.57;;
7829;SDS011;3960;51.86894000;5.39848000;2022-12-07T06:19:17;9.20;;;2.73;;
7829;SDS011;3960;51.86894000;5.39848000;2022-12-07T06:21:42;7.77;;;2.43;;
7829;SDS011;3960;51.86894000;5.39848000;2022-12-07T06:24:09;7.68;;;2.40;;
7829;SDS011;3960;51.86894000;5.39848000;2022-12-07T06:26:35;12.27;;;3.28;;
7829;SDS011;3960;51.86894000;5.39848000;2022-12-07T06:29:00;9.53;;;2.60;;
7829;SDS011;3960;51.86894000;5.39848000;2022-12-07T06:31:26;10.10;;;2.60;;
7829;SDS011;3960;51.86894000;5.39848000;2022-12-07T06:33:51;11.45;;;2.55;;
7829;SDS011;3960;51.86894000;5.39848000;2022-12-07T06:36:16;12.63;;;2.20;;
7829;SDS011;3960;51.86894000;5.39848000;2022-12-07T06:38:41;8.77;;;2.60;;
7829;SDS011;3960;51.86894000;5.39848000;2022-12-07T06:41:06;11.83;;;2.83;;
7829;SDS011;3960;51.86894000;5.39848000;2022-12-07T06:43:32;12.13;;;2.43;;
7829;SDS011;3960;51.86894000;5.39848000;2022-12-07T06:45:57;8.55;;;3.03;;
7829;SDS011;3960;51.86894000;5.39848000;2022-12-07T06:48:22;7.07;;;2.37;;
7829;SDS011;3960;51.86894000;5.39848000;2022-12-07T06:50:47;8.18;;;2.50;;
7829;SDS011;3960;51.86894000;5.39848000;2022-12-07T06:53:13;10.50;;;2.70;;
7829;SDS011;3960;51.86894000;5.39848000;2022-12-07T06:55:38;13.57;;;2.63;;
7829;SDS011;3960;51.86894000;5.39848000;2022-12-07T06:58:03;6.60;;;2.40;;
7829;SDS011;3960;51.86894000;5.39848000;2022-12-07T07:00:28;10.65;;;2.55;;
7829;SDS011;3960;51.86894000;5.39848000;2022-12-07T07:02:53;11.45;;;2.38;;
7829;SDS011;3960;51.86894000;5.39848000;2022-12-07T07:05:19;12.87;;;2.60;;
7829;SDS011;3960;51.86894000;5.39848000;2022-12-07T07:07:46;10.90;;;2.33;;
7829;SDS011;3960;51.86894000;5.39848000;2022-12-07T07:10:12;9.70;;;2.53;;
7829;SDS011;3960;51.86894000;5.39848000;2022-12-07T07:12:38;11.55;;;2.40;;
7829;SDS011;3960;51.86894000;5.39848000;2022-12-07T07:15:03;7.73;;;2.37;;
7829;SDS011;3960;51.86894000;5.39848000;2022-12-07T07:17:28;9.10;;;2.60;;
7829;SDS011;3960;51.86894000;5.39848000;2022-12-07T07:19:53;16.40;;;2.70;;
7829;SDS011;3960;51.86894000;5.39848000;2022-12-07T07:22:19;9.00;;;2.90;;
7829;SDS011;3960;51.86894000;5.39848000;2022-12-07T07:24:44;12.10;;;2.70;;
7829;SDS011;3960;51.86894000;5.39848000;2022-12-07T07:27:09;7.33;;;2.73;;
7829;SDS011;3960;51.86894000;5.39848000;2022-12-07T07:29:34;15.00;;;2.60;;
7829;SDS011;3960;51.86894000;5.39848000;2022-12-07T07:31:59;14.23;;;3.17;;
7829;SDS011;3960;51.86894000;5.39848000;2022-12-07T07:34:25;11.77;;;2.40;;
7829;SDS011;3960;51.86894000;5.39848000;2022-12-07T07:36:50;8.53;;;2.60;;
7829;SDS011;3960;51.86894000;5.39848000;2022-12-07T07:39:15;7.07;;;2.60;;
7829;SDS011;3960;51.86894000;5.39848000;2022-12-07T07:41:40;14.93;;;3.10;;
7829;SDS011;3960;51.86894000;5.39848000;2022-12-07T07:44:05;8.77;;;3.70;;
7829;SDS011;3960;51.86894000;5.39848000;2022-12-07T07:46:30;14.80;;;2.83;;
7829;SDS011;3960;51.86894000;5.39848000;2022-12-07T07:48:58;13.18;;;3.50;;
7829;SDS011;3960;51.86894000;5.39848000;2022-12-07T07:51:23;6.77;;;3.07;;
7829;SDS011;3960;51.86894000;5.39848000;2022-12-07T07:53:48;11.63;;;3.30;;
7829;SDS011;3960;51.86894000;5.39848000;2022-12-07T07:56:13;17.27;;;3.17;;
7829;SDS011;3960;51.86894000;5.39848000;2022-12-07T07:58:38;9.05;;;2.72;;
7829;SDS011;3960;51.86894000;5.39848000;2022-12-07T08:01:04;14.55;;;3.38;;
7829;SDS011;3960;51.86894000;5.39848000;2022-12-07T08:03:30;10.80;;;2.75;;
7829;SDS011;3960;51.86894000;5.39848000;2022-12-07T08:05:55;9.90;;;2.80;;
7829;SDS011;3960;51.86894000;5.39848000;2022-12-07T08:08:20;7.75;;;2.50;;
7829;SDS011;3960;51.86894000;5.39848000;2022-12-07T08:10:46;10.13;;;2.30;;
7829;SDS011;3960;51.86894000;5.39848000;2022-12-07T08:13:11;9.07;;;3.27;;
7829;SDS011;3960;51.86894000;5.39848000;2022-12-07T08:15:36;14.30;;;3.00;;
7829;SDS011;3960;51.86894000;5.39848000;2022-12-07T08:18:02;9.27;;;2.30;;
7829;SDS011;3960;51.86894000;5.39848000;2022-12-07T08:20:29;15.48;;;2.70;;
7829;SDS011;3960;51.86894000;5.39848000;2022-12-07T08:22:54;11.63;;;2.60;;
7829;SDS011;3960;51.86894000;5.39848000;2022-12-07T08:25:19;16.27;;;2.73;;
7829;SDS011;3960;51.86894000;5.39848000;2022-12-07T08:27:45;7.13;;;3.10;;
7829;SDS011;3960;51.86894000;5.39848000;2022-12-07T08:30:10;6.35;;;2.47;;
7829;SDS011;3960;51.86894000;5.39848000;2022-12-07T08:32:36;7.95;;;2.47;;
7829;SDS011;3960;51.86894000;5.39848000;2022-12-07T08:35:01;6.78;;;2.83;;
7829;SDS011;3960;51.86894000;5.39848000;2022-12-07T08:37:26;8.50;;;2.80;;
7829;SDS011;3960;51.86894000;5.39848000;2022-12-07T08:39:51;12.13;;;2.57;;
7829;SDS011;3960;51.86894000;5.39848000;2022-12-07T08:42:16;12.70;;;2.60;;
7829;SDS011;3960;51.86894000;5.39848000;2022-12-07T08:44:42;10.00;;;2.47;;
7829;SDS011;3960;51.86894000;5.39848000;2022-12-07T08:47:07;9.30;;;2.70;;
7829;SDS011;3960;51.86894000;5.39848000;2022-12-07T08:49:33;8.40;;;2.10;;
7829;SDS011;3960;51.86894000;5.39848000;2022-12-07T08:52:00;7.00;;;2.50;;
7829;SDS011;3960;51.86894000;5.39848000;2022-12-07T08:54:26;13.45;;;2.55;;
7829;SDS011;3960;51.86894000;5.39848000;2022-12-07T08:56:52;10.30;;;2.70;;
7829;SDS011;3960;51.86894000;5.39848000;2022-12-07T08:59:18;9.75;;;2.50;;
7829;SDS011;3960;51.86894000;5.39848000;2022-12-07T09:01:44;5.25;;;2.38;;
7829;SDS011;3960;51.86894000;5.39848000;2022-12-07T09:04:09;6.68;;;2.47;;
7829;SDS011;3960;51.86894000;5.39848000;2022-12-07T09:06:34;7.50;;;2.03;;
7829;SDS011;3960;51.86894000;5.39848000;2022-12-07T09:09:00;10.85;;;2.45;;
7829;SDS011;3960;51.86894000;5.39848000;2022-12-07T09:11:26;15.98;;;2.50;;
7829;SDS011;3960;51.86894000;5.39848000;2022-12-07T09:13:51;10.80;;;2.30;;
7829;SDS011;3960;51.86894000;5.39848000;2022-12-07T09:16:16;13.43;;;2.60;;
7829;SDS011;3960;51.86894000;5.39848000;2022-12-07T09:18:41;6.57;;;2.03;;
7829;SDS011;3960;51.86894000;5.39848000;2022-12-07T09:21:07;9.55;;;2.20;;
7829;SDS011;3960;51.86894000;5.39848000;2022-12-07T09:23:32;10.00;;;2.45;;
7829;SDS011;3960;51.86894000;5.39848000;2022-12-07T09:26:00;19.17;;;3.38;;
7829;SDS011;3960;51.86894000;5.39848000;2022-12-07T09:28:26;5.60;;;2.40;;
7829;SDS011;3960;51.86894000;5.39848000;2022-12-07T09:30:51;8.93;;;2.97;;
7829;SDS011;3960;51.86894000;5.39848000;2022-12-07T09:33:16;7.73;;;2.07;;
7829;SDS011;3960;51.86894000;5.39848000;2022-12-07T09:35:45;9.60;;;2.37;;
7829;SDS011;3960;51.86894000;5.39848000;2022-12-07T09:38:10;12.48;;;2.08;;
7829;SDS011;3960;51.86894000;5.39848000;2022-12-07T09:40:36;8.48;;;1.92;;
7829;SDS011;3960;51.86894000;5.39848000;2022-12-07T09:43:01;9.23;;;2.20;;
7829;SDS011;3960;51.86894000;5.39848000;2022-12-07T09:45:33;10.98;;;2.42;;
7829;SDS011;3960;51.86894000;5.39848000;2022-12-07T09:47:59;13.60;;;2.83;;
7829;SDS011;3960;51.86894000;5.39848000;2022-12-07T09:50:25;9.27;;;2.60;;
7829;SDS011;3960;51.86894000;5.39848000;2022-12-07T09:52:51;7.18;;;2.53;;
7829;SDS011;3960;51.86894000;5.39848000;2022-12-07T09:55:22;7.85;;;2.15;;
7829;SDS011;3960;51.86894000;5.39848000;2022-12-07T09:57:49;9.20;;;1.88;;
7829;SDS011;3960;51.86894000;5.39848000;2022-12-07T10:00:17;7.80;;;2.40;;
7829;SDS011;3960;51.86894000;5.39848000;2022-12-07T10:05:11;7.93;;;2.10;;
7829;SDS011;3960;51.86894000;5.39848000;2022-12-07T10:07:37;8.93;;;2.08;;
7829;SDS011;3960;51.86894000;5.39848000;2022-12-07T10:10:03;3.35;;;1.60;;
7829;SDS011;3960;51.86894000;5.39848000;2022-12-07T10:12:29;7.20;;;1.95;;
7829;SDS011;3960;51.86894000;5.39848000;2022-12-07T10:14:55;8.50;;;2.20;;
7829;SDS011;3960;51.86894000;5.39848000;2022-12-07T10:19:52;8.70;;;2.10;;
7829;SDS011;3960;51.86894000;5.39848000;2022-12-07T10:22:32;10.93;;;2.35;;
7829;SDS011;3960;51.86894000;5.39848000;2022-12-07T10:25:07;9.40;;;1.90;;
7829;SDS011;3960;51.86894000;5.39848000;2022-12-07T10:27:32;9.98;;;2.53;;
7829;SDS011;3960;51.86894000;5.39848000;2022-12-07T10:29:58;4.95;;;1.73;;
7829;SDS011;3960;51.86894000;5.39848000;2022-12-07T10:32:28;6.57;;;1.80;;
7829;SDS011;3960;51.86894000;5.39848000;2022-12-07T10:37:39;11.13;;;2.28;;
7829;SDS011;3960;51.86894000;5.39848000;2022-12-07T10:40:10;8.27;;;2.20;;
7829;SDS011;3960;51.86894000;5.39848000;2022-12-07T10:42:49;8.52;;;2.28;;
7829;SDS011;3960;51.86894000;5.39848000;2022-12-07T10:45:24;7.20;;;1.75;;
7829;SDS011;3960;51.86894000;5.39848000;2022-12-07T10:47:59;13.57;;;2.37;;
7829;SDS011;3960;51.86894000;5.39848000;2022-12-07T10:53:14;13.40;;;2.20;;
7829;SDS011;3960;51.86894000;5.39848000;2022-12-07T10:55:56;6.63;;;1.88;;
7829;SDS011;3960;51.86894000;5.39848000;2022-12-07T10:58:27;8.82;;;2.50;;
7829;SDS011;3960;51.86894000;5.39848000;2022-12-07T11:04:24;8.50;;;2.42;;
7829;SDS011;3960;51.86894000;5.39848000;2022-12-07T11:06:27;8.23;;;2.35;;
7829;SDS011;3960;51.86894000;5.39848000;2022-12-07T11:16:50;4.23;;;1.83;;
7829;SDS011;3960;51.86894000;5.39848000;2022-12-07T11:22:04;6.47;;;1.65;;
7829;SDS011;3960;51.86894000;5.39848000;2022-12-07T11:24:41;8.00;;;1.83;;
7829;SDS011;3960;51.86894000;5.39848000;2022-12-07T11:29:47;7.13;;;1.90;;
7829;SDS011;3960;51.86894000;5.39848000;2022-12-07T11:32:17;16.02;;;2.55;;
7829;SDS011;3960;51.86894000;5.39848000;2022-12-07T11:35:05;5.03;;;1.20;;
7829;SDS011;3960;51.86894000;5.39848000;2022-12-07T11:37:36;5.65;;;1.67;;
7829;SDS011;3960;51.86894000;5.39848000;2022-12-07T11:42:33;7.25;;;1.40;;
7829;SDS011;3960;51.86894000;5.39848000;2022-12-07T11:45:02;6.83;;;1.90;;
7829;SDS011;3960;51.86894000;5.39848000;2022-12-07T11:50:24;5.68;;;1.63;;
7829;SDS011;3960;51.86894000;5.39848000;2022-12-07T11:53:04;3.65;;;0.80;;
7829;SDS011;3960;51.86894000;5.39848000;2022-12-07T11:55:52;1.10;;;0.50;;
7829;SDS011;3960;51.86894000;5.39848000;2022-12-07T12:01:24;2.30;;;0.95;;
7829;SDS011;3960;51.86894000;5.39848000;2022-12-07T12:03:53;4.60;;;0.98;;
7829;SDS011;3960;51.86894000;5.39848000;2022-12-07T12:06:21;6.53;;;0.98;;
7829;SDS011;3960;51.86894000;5.39848000;2022-12-07T12:08:49;4.45;;;1.42;;
7829;SDS011;3960;51.86894000;5.39848000;2022-12-07T12:19:11;3.70;;;1.30;;
7829;SDS011;3960;51.86894000;5.39848000;2022-12-07T12:21:41;2.60;;;1.30;;
7829;SDS011;3960;51.86894000;5.39848000;2022-12-07T12:24:11;7.47;;;1.40;;
7829;SDS011;3960;51.86894000;5.39848000;2022-12-07T12:26:37;4.60;;;1.48;;
7829;SDS011;3960;51.86894000;5.39848000;2022-12-07T12:29:04;9.73;;;1.60;;
7829;SDS011;3960;51.86894000;5.39848000;2022-12-07T12:31:34;6.95;;;2.40;;
7829;SDS011;3960;51.86894000;5.39848000;2022-12-07T12:34:02;7.07;;;2.22;;
7829;SDS011;3960;51.86894000;5.39848000;2022-12-07T12:49:30;6.63;;;1.65;;
7829;SDS011;3960;51.86894000;5.39848000;2022-12-07T12:51:58;8.27;;;1.52;;
7829;SDS011;3960;51.86894000;5.39848000;2022-12-07T12:54:24;3.20;;;1.33;;
7829;SDS011;3960;51.86894000;5.39848000;2022-12-07T12:59:34;6.03;;;1.85;;
7829;SDS011;3960;51.86894000;5.39848000;2022-12-07T13:10:02;4.95;;;1.63;;
7829;SDS011;3960;51.86894000;5.39848000;2022-12-07T13:12:27;5.03;;;1.33;;
7829;SDS011;3960;51.86894000;5.39848000;2022-12-07T13:14:56;5.53;;;1.23;;
7829;SDS011;3960;51.86894000;5.39848000;2022-12-07T13:20:00;3.53;;;1.40;;
7829;SDS011;3960;51.86894000;5.39848000;2022-12-07T13:24:58;3.70;;;1.50;;
7829;SDS011;3960;51.86894000;5.39848000;2022-12-07T13:27:25;5.78;;;1.90;;
7829;SDS011;3960;51.86894000;5.39848000;2022-12-07T13:29:51;13.50;;;2.70;;
7829;SDS011;3960;51.86894000;5.39848000;2022-12-07T13:32:27;7.37;;;2.17;;
7829;SDS011;3960;51.86894000;5.39848000;2022-12-07T13:34:52;5.90;;;2.10;;
7829;SDS011;3960;51.86894000;5.39848000;2022-12-07T13:40:01;6.78;;;2.30;;
7829;SDS011;3960;51.86894000;5.39848000;2022-12-07T13:42:31;6.85;;;2.30;;
7829;SDS011;3960;51.86894000;5.39848000;2022-12-07T13:44:58;5.55;;;2.25;;
7829;SDS011;3960;51.86894000;5.39848000;2022-12-07T13:47:36;5.88;;;2.13;;
7829;SDS011;3960;51.86894000;5.39848000;2022-12-07T13:50:21;8.13;;;2.60;;
7829;SDS011;3960;51.86894000;5.39848000;2022-12-07T13:52:48;8.80;;;2.22;;
7829;SDS011;3960;51.86894000;5.39848000;2022-12-07T13:55:14;8.18;;;1.92;;
7829;SDS011;3960;51.86894000;5.39848000;2022-12-07T13:57:40;4.95;;;1.75;;
7829;SDS011;3960;51.86894000;5.39848000;2022-12-07T14:00:06;5.72;;;2.08;;
7829;SDS011;3960;51.86894000;5.39848000;2022-12-07T14:02:53;3.15;;;1.02;;
7829;SDS011;3960;51.86894000;5.39848000;2022-12-07T14:05:23;3.20;;;1.15;;
7829;SDS011;3960;51.86894000;5.39848000;2022-12-07T14:10:34;2.53;;;0.70;;
7829;SDS011;3960;51.86894000;5.39848000;2022-12-07T14:13:00;6.07;;;1.33;;
7829;SDS011;3960;51.86894000;5.39848000;2022-12-07T14:15:29;3.60;;;0.98;;
7829;SDS011;3960;51.86894000;5.39848000;2022-12-07T14:17:55;6.97;;;1.75;;
7829;SDS011;3960;51.86894000;5.39848000;2022-12-07T14:20:34;9.75;;;2.20;;
7829;SDS011;3960;51.86894000;5.39848000;2022-12-07T14:23:02;4.35;;;1.30;;
7829;SDS011;3960;51.86894000;5.39848000;2022-12-07T14:25:43;6.40;;;2.40;;
7829;SDS011;3960;51.86894000;5.39848000;2022-12-07T14:28:09;10.30;;;4.13;;
7829;SDS011;3960;51.86894000;5.39848000;2022-12-07T14:30:49;10.07;;;4.18;;
7829;SDS011;3960;51.86894000;5.39848000;2022-12-07T14:33:14;8.10;;;1.90;;
7829;SDS011;3960;51.86894000;5.39848000;2022-12-07T14:35:39;7.10;;;1.50;;
7829;SDS011;3960;51.86894000;5.39848000;2022-12-07T14:38:05;2.92;;;0.80;;
7829;SDS011;3960;51.86894000;5.39848000;2022-12-07T14:40:30;2.33;;;0.80;;
7829;SDS011;3960;51.86894000;5.39848000;2022-12-07T14:42:57;5.82;;;1.25;;
7829;SDS011;3960;51.86894000;5.39848000;2022-12-07T14:45:23;8.18;;;1.20;;
7829;SDS011;3960;51.86894000;5.39848000;2022-12-07T14:47:48;3.20;;;0.90;;
7829;SDS011;3960;51.86894000;5.39848000;2022-12-07T14:50:15;3.75;;;0.90;;